DBSRT LGIR-EDDN
Flight info
| Callsign | DBSRT |
|---|---|
| Flight time | N/A |
| Altitude | 43000 |
| Route | EPALO UM749 ATV DCT BITLA DCT BONZI DCT RETRA DCT PEVAL DCT MOBDO DCT BRENO/N0504F300 M726 MAH L132 LASMI Y103 UNKUL L610 UPALA UPALA1V |
| Aircraft | C750/M-SBDE3FGHRWXY/S |
Departure
| Time | N/A |
|---|---|
| Airport | Heraklion International Nikos Kazantzakis Airport (LGIR) |
Arrival
| Time | 2026-05-06 11:22 |
|---|---|
| Airport | Nuremberg Airport (EDDN) |
| Time | Latitude | Longitude | Altitude | Speed | Heading |
|---|---|---|---|---|---|
| 2026-05-06 10:22 | 44.57539 | 14.75825 | 44992 ft | 496 kts | 302° |
| 2026-05-06 10:22 | 44.59520 | 14.71861 | 44999 ft | 496 kts | 302° |
| 2026-05-06 10:23 | 44.63478 | 14.63924 | 45003 ft | 496 kts | 302° |
| 2026-05-06 10:23 | 44.67428 | 14.55982 | 44990 ft | 496 kts | 302° |
| 2026-05-06 10:24 | 44.71354 | 14.48072 | 44993 ft | 486 kts | 302° |
| 2026-05-06 10:24 | 44.75187 | 14.40320 | 44996 ft | 487 kts | 301° |
| 2026-05-06 10:25 | 44.79052 | 14.32485 | 44985 ft | 487 kts | 301° |
| 2026-05-06 10:25 | 44.82920 | 14.24624 | 44998 ft | 488 kts | 301° |
| 2026-05-06 10:26 | 44.86776 | 14.16767 | 44991 ft | 487 kts | 301° |
| 2026-05-06 10:26 | 44.90616 | 14.08913 | 44998 ft | 487 kts | 301° |
| 2026-05-06 10:27 | 44.94439 | 14.01084 | 44991 ft | 487 kts | 301° |
| 2026-05-06 10:27 | 44.98277 | 13.93191 | 44994 ft | 487 kts | 301° |
| 2026-05-06 10:28 | 45.02115 | 13.85285 | 44983 ft | 489 kts | 301° |
| 2026-05-06 10:28 | 45.05953 | 13.77350 | 44985 ft | 489 kts | 301° |
| 2026-05-06 10:29 | 45.09795 | 13.69391 | 44964 ft | 490 kts | 301° |
| 2026-05-06 10:29 | 45.13643 | 13.61395 | 44952 ft | 491 kts | 300° |
| 2026-05-06 10:30 | 45.17485 | 13.53388 | 44956 ft | 492 kts | 300° |
| 2026-05-06 10:30 | 45.21306 | 13.45403 | 44953 ft | 492 kts | 300° |
| 2026-05-06 10:31 | 45.25152 | 13.37342 | 44945 ft | 492 kts | 300° |
| 2026-05-06 10:31 | 45.29021 | 13.29301 | 44929 ft | 494 kts | 303° |
| 2026-05-06 10:32 | 45.33943 | 13.22481 | 44922 ft | 506 kts | 321° |
| 2026-05-06 10:32 | 45.40027 | 13.17313 | 44944 ft | 509 kts | 326° |
| 2026-05-06 10:33 | 45.46128 | 13.12171 | 44944 ft | 509 kts | 325° |
| 2026-05-06 10:33 | 45.52229 | 13.07020 | 44918 ft | 509 kts | 326° |
| 2026-05-06 10:34 | 45.58331 | 13.01875 | 44920 ft | 509 kts | 325° |
| 2026-05-06 10:34 | 45.64420 | 12.96702 | 44929 ft | 511 kts | 326° |
| 2026-05-06 10:35 | 45.70151 | 12.90819 | 44914 ft | 505 kts | 315° |
| 2026-05-06 10:35 | 45.75347 | 12.84059 | 44927 ft | 506 kts | 315° |
| 2026-05-06 10:36 | 45.80920 | 12.77840 | 44938 ft | 508 kts | 319° |
| 2026-05-06 10:36 | 45.86327 | 12.71451 | 44942 ft | 506 kts | 315° |
| 2026-05-06 10:37 | 45.91828 | 12.65047 | 44944 ft | 511 kts | 318° |
| 2026-05-06 10:37 | 45.97342 | 12.58612 | 44952 ft | 510 kts | 316° |
| 2026-05-06 10:38 | 46.02839 | 12.52128 | 44932 ft | 511 kts | 317° |
| 2026-05-06 10:38 | 46.08357 | 12.45667 | 44932 ft | 511 kts | 317° |
| 2026-05-06 10:39 | 46.13858 | 12.39148 | 44943 ft | 512 kts | 317° |
| 2026-05-06 10:39 | 46.19346 | 12.32677 | 44936 ft | 511 kts | 317° |
| 2026-05-06 10:40 | 46.24847 | 12.26137 | 44925 ft | 511 kts | 317° |
| 2026-05-06 10:40 | 46.30353 | 12.19599 | 44921 ft | 511 kts | 317° |
| 2026-05-06 10:41 | 46.34918 | 12.14152 | 44918 ft | 511 kts | 316° |
| 2026-05-06 10:41 | 46.41308 | 12.06514 | 44909 ft | 512 kts | 316° |
| 2026-05-06 10:42 | 46.45866 | 12.01051 | 44906 ft | 511 kts | 316° |
| 2026-05-06 10:42 | 46.51358 | 11.94450 | 44906 ft | 512 kts | 316° |
| 2026-05-06 10:43 | 46.56838 | 11.87847 | 44897 ft | 512 kts | 316° |
| 2026-05-06 10:44 | 46.65055 | 11.77912 | 44888 ft | 512 kts | 316° |
| 2026-05-06 10:44 | 46.70489 | 11.71318 | 44881 ft | 512 kts | 316° |
| 2026-05-06 10:45 | 46.75919 | 11.64720 | 44251 ft | 498 kts | 316° |
| 2026-05-06 10:45 | 46.78544 | 11.61525 | 43624 ft | 484 kts | 316° |
| 2026-05-06 10:45 | 46.81093 | 11.58408 | 42987 ft | 473 kts | 316° |
| 2026-05-06 10:45 | 46.83585 | 11.55363 | 42366 ft | 463 kts | 316° |
| 2026-05-06 10:46 | 46.86038 | 11.52364 | 41767 ft | 456 kts | 315° |
| 2026-05-06 10:46 | 46.88436 | 11.49427 | 41184 ft | 454 kts | 315° |
| 2026-05-06 10:46 | 46.90859 | 11.46448 | 40565 ft | 454 kts | 315° |
| 2026-05-06 10:46 | 46.93289 | 11.43469 | 39965 ft | 456 kts | 316° |
| 2026-05-06 10:47 | 46.95927 | 11.40813 | 39363 ft | 463 kts | 326° |
| 2026-05-06 10:47 | 46.98851 | 11.38796 | 38714 ft | 469 kts | 335° |
| 2026-05-06 10:47 | 47.01990 | 11.37522 | 38321 ft | 471 kts | 345° |
| 2026-05-06 10:47 | 47.05297 | 11.36982 | 37902 ft | 485 kts | 353° |
| 2026-05-06 10:48 | 47.08663 | 11.36917 | 37463 ft | 486 kts | 356° |
| 2026-05-06 10:48 | 47.12048 | 11.37019 | 37015 ft | 485 kts | 357° |
| 2026-05-06 10:48 | 47.15437 | 11.36951 | 36560 ft | 486 kts | 353° |
| 2026-05-06 10:48 | 47.18780 | 11.36636 | 36139 ft | 489 kts | 351° |
| 2026-05-06 10:49 | 47.22203 | 11.36367 | 35706 ft | 495 kts | 353° |
| 2026-05-06 10:49 | 47.25658 | 11.36278 | 35279 ft | 499 kts | 354° |
| 2026-05-06 10:49 | 47.29127 | 11.36187 | 34814 ft | 499 kts | 352° |
| 2026-05-06 10:49 | 47.32616 | 11.35974 | 34376 ft | 499 kts | 351° |
| 2026-05-06 10:50 | 47.36084 | 11.35742 | 33927 ft | 500 kts | 351° |
| 2026-05-06 10:50 | 47.39565 | 11.35582 | 33534 ft | 501 kts | 352° |
| 2026-05-06 10:50 | 47.43063 | 11.35447 | 33081 ft | 501 kts | 352° |
| 2026-05-06 10:50 | 47.46565 | 11.35263 | 32571 ft | 503 kts | 351° |
| 2026-05-06 10:51 | 47.50067 | 11.35070 | 32105 ft | 503 kts | 352° |
| 2026-05-06 10:51 | 47.53582 | 11.34897 | 31656 ft | 504 kts | 352° |
| 2026-05-06 10:51 | 47.57060 | 11.34731 | 31227 ft | 508 kts | 353° |
| 2026-05-06 10:51 | 47.60592 | 11.34551 | 30769 ft | 507 kts | 353° |
| 2026-05-06 10:52 | 47.64133 | 11.34365 | 30314 ft | 509 kts | 353° |
| 2026-05-06 10:52 | 47.67665 | 11.34189 | 29891 ft | 508 kts | 353° |
| 2026-05-06 10:52 | 47.71184 | 11.34016 | 29385 ft | 503 kts | 353° |
| 2026-05-06 10:52 | 47.74672 | 11.33840 | 28949 ft | 500 kts | 353° |
| 2026-05-06 10:53 | 47.78138 | 11.33661 | 28517 ft | 497 kts | 353° |
| 2026-05-06 10:53 | 47.81591 | 11.33484 | 28084 ft | 493 kts | 353° |
| 2026-05-06 10:53 | 47.85011 | 11.33312 | 27654 ft | 490 kts | 353° |
| 2026-05-06 10:53 | 47.88409 | 11.33140 | 27234 ft | 487 kts | 354° |
| 2026-05-06 10:54 | 47.91790 | 11.32967 | 26800 ft | 484 kts | 354° |
| 2026-05-06 10:54 | 47.95102 | 11.32797 | 26382 ft | 481 kts | 354° |
| 2026-05-06 10:54 | 47.98446 | 11.32626 | 25961 ft | 478 kts | 354° |
| 2026-05-06 10:54 | 48.01765 | 11.32457 | 25541 ft | 475 kts | 354° |
| 2026-05-06 10:55 | 48.05058 | 11.32288 | 25126 ft | 472 kts | 355° |
| 2026-05-06 10:55 | 48.08338 | 11.32119 | 24712 ft | 469 kts | 355° |
| 2026-05-06 10:55 | 48.11583 | 11.31953 | 24305 ft | 464 kts | 355° |
| 2026-05-06 10:55 | 48.14808 | 11.31787 | 23896 ft | 462 kts | 355° |
| 2026-05-06 10:56 | 48.18011 | 11.31621 | 23495 ft | 459 kts | 355° |
| 2026-05-06 10:56 | 48.21197 | 11.31447 | 23035 ft | 456 kts | 356° |
| 2026-05-06 10:56 | 48.24307 | 11.31728 | 22460 ft | 455 kts | 10° |
| 2026-05-06 10:56 | 48.27263 | 11.33358 | 21888 ft | 450 kts | 28° |
| 2026-05-06 10:57 | 48.29764 | 11.36103 | 21366 ft | 443 kts | 44° |
| 2026-05-06 10:57 | 48.31991 | 11.39297 | 20962 ft | 441 kts | 46° |
| 2026-05-06 10:57 | 48.34170 | 11.42515 | 20566 ft | 438 kts | 46° |
| 2026-05-06 10:57 | 48.36352 | 11.45700 | 20165 ft | 436 kts | 45° |
| 2026-05-06 10:58 | 48.38537 | 11.48842 | 19762 ft | 433 kts | 45° |
| 2026-05-06 10:58 | 48.40700 | 11.51970 | 19368 ft | 430 kts | 46° |
| 2026-05-06 10:58 | 48.42838 | 11.55100 | 18975 ft | 428 kts | 46° |
| 2026-05-06 10:58 | 48.44966 | 11.58216 | 18593 ft | 424 kts | 46° |
| 2026-05-06 10:59 | 48.47058 | 11.61260 | 18235 ft | 423 kts | 45° |
| 2026-05-06 10:59 | 48.49167 | 11.64333 | 17842 ft | 420 kts | 45° |
| 2026-05-06 10:59 | 48.51289 | 11.67298 | 17388 ft | 415 kts | 40° |
| 2026-05-06 10:59 | 48.53810 | 11.69327 | 16820 ft | 410 kts | 18° |
| 2026-05-06 11:00 | 48.56599 | 11.70051 | 16322 ft | 406 kts | 359° |
| 2026-05-06 11:00 | 48.59349 | 11.69475 | 15874 ft | 396 kts | 343° |
| 2026-05-06 11:00 | 48.61999 | 11.68356 | 15550 ft | 394 kts | 341° |
| 2026-05-06 11:00 | 48.64634 | 11.67196 | 15232 ft | 393 kts | 341° |
| 2026-05-06 11:01 | 48.67224 | 11.66074 | 14914 ft | 390 kts | 341° |
| 2026-05-06 11:01 | 48.69833 | 11.64972 | 14580 ft | 388 kts | 341° |
| 2026-05-06 11:01 | 48.72431 | 11.63864 | 14229 ft | 388 kts | 342° |
| 2026-05-06 11:01 | 48.75019 | 11.62745 | 13877 ft | 385 kts | 342° |
| 2026-05-06 11:02 | 48.77593 | 11.61633 | 13510 ft | 384 kts | 342° |
| 2026-05-06 11:02 | 48.80158 | 11.60533 | 13116 ft | 381 kts | 342° |
| 2026-05-06 11:02 | 48.82707 | 11.59441 | 12846 ft | 379 kts | 342° |
| 2026-05-06 11:02 | 48.85247 | 11.58362 | 12631 ft | 379 kts | 342° |
| 2026-05-06 11:03 | 48.87766 | 11.57246 | 12391 ft | 375 kts | 341° |
| 2026-05-06 11:03 | 48.90277 | 11.56146 | 12142 ft | 375 kts | 342° |
| 2026-05-06 11:03 | 48.92792 | 11.55081 | 11859 ft | 373 kts | 342° |
| 2026-05-06 11:03 | 48.95289 | 11.54017 | 11592 ft | 373 kts | 342° |
| 2026-05-06 11:04 | 48.97780 | 11.52936 | 11404 ft | 370 kts | 342° |
| 2026-05-06 11:04 | 49.00220 | 11.51851 | 11274 ft | 370 kts | 342° |
| 2026-05-06 11:04 | 49.02694 | 11.50771 | 11064 ft | 366 kts | 342° |
| 2026-05-06 11:04 | 49.05043 | 11.49749 | 10725 ft | 337 kts | 342° |
| 2026-05-06 11:05 | 49.07223 | 11.48807 | 10359 ft | 316 kts | 342° |
| 2026-05-06 11:05 | 49.09309 | 11.47909 | 9998 ft | 308 kts | 342° |
| 2026-05-06 11:05 | 49.11331 | 11.47026 | 9804 ft | 293 kts | 342° |
| 2026-05-06 11:05 | 49.13194 | 11.45811 | 9753 ft | 289 kts | 322° |
| 2026-05-06 11:06 | 49.14507 | 11.43569 | 9785 ft | 282 kts | 297° |
| 2026-05-06 11:06 | 49.15396 | 11.40909 | 9826 ft | 281 kts | 292° |
| 2026-05-06 11:06 | 49.16247 | 11.38220 | 9819 ft | 281 kts | 292° |
| 2026-05-06 11:06 | 49.17110 | 11.35542 | 9817 ft | 280 kts | 293° |
| 2026-05-06 11:07 | 49.17980 | 11.32870 | 9818 ft | 281 kts | 293° |
| 2026-05-06 11:07 | 49.18846 | 11.30192 | 9812 ft | 281 kts | 292° |
| 2026-05-06 11:07 | 49.19697 | 11.27552 | 9810 ft | 278 kts | 292° |
| 2026-05-06 11:07 | 49.20550 | 11.24901 | 9806 ft | 277 kts | 292° |
| 2026-05-06 11:08 | 49.21464 | 11.22293 | 9777 ft | 281 kts | 300° |
| 2026-05-06 11:08 | 49.22878 | 11.20198 | 9803 ft | 286 kts | 316° |
| 2026-05-06 11:08 | 49.24203 | 11.17984 | 9794 ft | 281 kts | 302° |
| 2026-05-06 11:08 | 49.25278 | 11.15497 | 9809 ft | 280 kts | 298° |
| 2026-05-06 11:09 | 49.26318 | 11.12987 | 9810 ft | 280 kts | 300° |
| 2026-05-06 11:09 | 49.27457 | 11.10561 | 9809 ft | 281 kts | 303° |
| 2026-05-06 11:09 | 49.28686 | 11.08113 | 9773 ft | 296 kts | 304° |
| 2026-05-06 11:09 | 49.29895 | 11.05632 | 9379 ft | 285 kts | 303° |
| 2026-05-06 11:10 | 49.31035 | 11.03230 | 8945 ft | 272 kts | 302° |
| 2026-05-06 11:10 | 49.32132 | 11.00926 | 8517 ft | 263 kts | 303° |
| 2026-05-06 11:10 | 49.33194 | 10.98698 | 8092 ft | 255 kts | 304° |
| 2026-05-06 11:10 | 49.34311 | 10.96615 | 7677 ft | 252 kts | 308° |
| 2026-05-06 11:11 | 49.35451 | 10.94599 | 7269 ft | 249 kts | 308° |
| 2026-05-06 11:11 | 49.36579 | 10.92598 | 6871 ft | 247 kts | 308° |
| 2026-05-06 11:11 | 49.37694 | 10.90599 | 6480 ft | 245 kts | 308° |
| 2026-05-06 11:11 | 49.38795 | 10.88608 | 6089 ft | 244 kts | 308° |
| 2026-05-06 11:12 | 49.39881 | 10.86620 | 5674 ft | 241 kts | 306° |
| 2026-05-06 11:12 | 49.40671 | 10.84380 | 5225 ft | 238 kts | 289° |
| 2026-05-06 11:12 | 49.41238 | 10.82042 | 4999 ft | 232 kts | 288° |
| 2026-05-06 11:12 | 49.41803 | 10.79692 | 5010 ft | 235 kts | 288° |
| 2026-05-06 11:13 | 49.42373 | 10.77335 | 5009 ft | 232 kts | 288° |
| 2026-05-06 11:13 | 49.42917 | 10.75120 | 5007 ft | 211 kts | 288° |
| 2026-05-06 11:13 | 49.43405 | 10.73151 | 4994 ft | 187 kts | 288° |
| 2026-05-06 11:13 | 49.43871 | 10.71300 | 5004 ft | 186 kts | 288° |
| 2026-05-06 11:14 | 49.44332 | 10.69458 | 5001 ft | 183 kts | 287° |
| 2026-05-06 11:14 | 49.44643 | 10.67585 | 5011 ft | 180 kts | 279° |
| 2026-05-06 11:14 | 49.44870 | 10.65699 | 5014 ft | 181 kts | 277° |
| 2026-05-06 11:14 | 49.45426 | 10.63952 | 4932 ft | 187 kts | 316° |
| 2026-05-06 11:15 | 49.46687 | 10.63393 | 4692 ft | 198 kts | 2° |
| 2026-05-06 11:15 | 49.47968 | 10.63714 | 4960 ft | 189 kts | 7° |
| 2026-05-06 11:15 | 49.49297 | 10.63978 | 5061 ft | 193 kts | 6° |
| 2026-05-06 11:15 | 49.50635 | 10.64238 | 4998 ft | 192 kts | 6° |
| 2026-05-06 11:16 | 49.51965 | 10.64493 | 4995 ft | 193 kts | 6° |
| 2026-05-06 11:16 | 49.53180 | 10.65289 | 4886 ft | 193 kts | 46° |
| 2026-05-06 11:16 | 49.53644 | 10.67154 | 4925 ft | 188 kts | 85° |
| 2026-05-06 11:16 | 49.53652 | 10.69163 | 5002 ft | 187 kts | 99° |
| 2026-05-06 11:17 | 49.53460 | 10.71134 | 5000 ft | 186 kts | 102° |
| 2026-05-06 11:17 | 49.53265 | 10.73109 | 5006 ft | 188 kts | 102° |
| 2026-05-06 11:17 | 49.53072 | 10.75063 | 4998 ft | 188 kts | 101° |
| 2026-05-06 11:17 | 49.52879 | 10.77068 | 4779 ft | 189 kts | 101° |
| 2026-05-06 11:18 | 49.52686 | 10.79056 | 4530 ft | 186 kts | 101° |
| 2026-05-06 11:18 | 49.52493 | 10.81025 | 4272 ft | 185 kts | 101° |
| 2026-05-06 11:18 | 49.52304 | 10.82952 | 4013 ft | 181 kts | 102° |
| 2026-05-06 11:18 | 49.52114 | 10.84874 | 3765 ft | 182 kts | 101° |
| 2026-05-06 11:19 | 49.51926 | 10.86789 | 3539 ft | 181 kts | 100° |
| 2026-05-06 11:19 | 49.51740 | 10.88712 | 3300 ft | 180 kts | 101° |
| 2026-05-06 11:19 | 49.51552 | 10.90642 | 3060 ft | 180 kts | 101° |
| 2026-05-06 11:19 | 49.51365 | 10.92551 | 2823 ft | 176 kts | 101° |
| 2026-05-06 11:20 | 49.51187 | 10.94385 | 2580 ft | 159 kts | 100° |
| 2026-05-06 11:20 | 49.51039 | 10.95933 | 2371 ft | 138 kts | 101° |
| 2026-05-06 11:20 | 49.50901 | 10.97353 | 2203 ft | 130 kts | 100° |
| 2026-05-06 11:20 | 49.50770 | 10.98726 | 2061 ft | 129 kts | 100° |
| 2026-05-06 11:21 | 49.50650 | 11.00109 | 1805 ft | 129 kts | 100° |
| 2026-05-06 11:21 | 49.50507 | 11.01463 | 1686 ft | 130 kts | 100° |
| 2026-05-06 11:21 | 49.50364 | 11.02847 | 1465 ft | 130 kts | 101° |
| 2026-05-06 11:21 | 49.50227 | 11.04210 | 1300 ft | 131 kts | 99° |
| 2026-05-06 11:22 | 49.50093 | 11.05584 | 1107 ft | 129 kts | 100° |
| 2026-05-06 11:22 | 49.49949 | 11.06891 | 1021 ft | 115 kts | 99° |
| 2026-05-06 11:22 | 49.49866 | 11.07879 | 1025 ft | 63 kts | 98° |
| 2026-05-06 11:22 | 49.49815 | 11.08345 | 1031 ft | 34 kts | 98° |
| 2026-05-06 11:23 | 49.49776 | 11.08542 | 1034 ft | 16 kts | 142° |
| 2026-05-06 11:23 | 49.49679 | 11.08519 | 1032 ft | 16 kts | 230° |
| 2026-05-06 11:23 | 49.49659 | 11.08480 | 1031 ft | 0 kts | 235° |
| 2026-05-06 11:23 | 49.49649 | 11.08457 | 1031 ft | 5 kts | 235° |
| 2026-05-06 11:24 | 49.49614 | 11.08387 | 1030 ft | 11 kts | 224° |
| 2026-05-06 11:24 | 49.49549 | 11.08341 | 1027 ft | 11 kts | 214° |
| 2026-05-06 11:24 | 49.49542 | 11.08208 | 1024 ft | 15 kts | 282° |
| 2026-05-06 11:24 | 49.49559 | 11.08034 | 1022 ft | 18 kts | 276° |
| 2026-05-06 11:25 | 49.49580 | 11.07826 | 1023 ft | 21 kts | 276° |
| 2026-05-06 11:25 | 49.49603 | 11.07585 | 1022 ft | 25 kts | 279° |
| 2026-05-06 11:25 | 49.49628 | 11.07342 | 1022 ft | 5 kts | 279° |
| 2026-05-06 11:25 | 49.49628 | 11.07340 | 1022 ft | 0 kts | 279° |
| 2026-05-06 11:26 | 49.49632 | 11.07307 | 1022 ft | 5 kts | 279° |
| 2026-05-06 11:26 | 49.49634 | 11.07252 | 1021 ft | 5 kts | 259° |
| 2026-05-06 11:26 | 49.49598 | 11.07210 | 1022 ft | 7 kts | 192° |
| 2026-05-06 11:26 | 49.49552 | 11.07200 | 1023 ft | 7 kts | 186° |
| 2026-05-06 11:27 | 49.49510 | 11.07178 | 1023 ft | 6 kts | 230° |
| 2026-05-06 11:27 | 49.49505 | 11.07116 | 1023 ft | 6 kts | 273° |
| 2026-05-06 11:27 | 49.49516 | 11.07055 | 1023 ft | 6 kts | 305° |
| 2026-05-06 11:27 | 49.49551 | 11.07041 | 1023 ft | 5 kts | 11° |
| 2026-05-06 11:28 | 49.49554 | 11.07042 | 1023 ft | 0 kts | 11° |